sensor_id;sensor_type;location;lat;lon;timestamp;P1;durP1;ratioP1;P2;durP2;ratioP2
27412;SDS011;14871;52.702;5.230;2023-07-20T00:01:54;4.28;;;3.88;;
27412;SDS011;14871;52.702;5.230;2023-07-20T00:04:20;4.85;;;4.20;;
27412;SDS011;14871;52.702;5.230;2023-07-20T00:06:45;5.60;;;4.10;;
27412;SDS011;14871;52.702;5.230;2023-07-20T00:09:11;4.78;;;4.28;;
27412;SDS011;14871;52.702;5.230;2023-07-20T00:11:37;6.18;;;4.05;;
27412;SDS011;14871;52.702;5.230;2023-07-20T00:14:04;5.38;;;4.38;;
27412;SDS011;14871;52.702;5.230;2023-07-20T00:16:30;5.32;;;4.50;;
27412;SDS011;14871;52.702;5.230;2023-07-20T00:18:56;6.20;;;4.55;;
27412;SDS011;14871;52.702;5.230;2023-07-20T00:21:21;5.32;;;4.57;;
27412;SDS011;14871;52.702;5.230;2023-07-20T00:23:47;4.82;;;4.30;;
27412;SDS011;14871;52.702;5.230;2023-07-20T00:26:12;7.07;;;4.40;;
27412;SDS011;14871;52.702;5.230;2023-07-20T00:28:38;5.85;;;4.65;;
27412;SDS011;14871;52.702;5.230;2023-07-20T00:31:04;5.35;;;4.47;;
27412;SDS011;14871;52.702;5.230;2023-07-20T00:33:30;5.05;;;4.43;;
27412;SDS011;14871;52.702;5.230;2023-07-20T00:35:55;4.53;;;4.13;;
27412;SDS011;14871;52.702;5.230;2023-07-20T00:38:21;7.05;;;4.40;;
27412;SDS011;14871;52.702;5.230;2023-07-20T00:40:47;8.40;;;4.50;;
27412;SDS011;14871;52.702;5.230;2023-07-20T00:43:14;5.82;;;4.18;;
27412;SDS011;14871;52.702;5.230;2023-07-20T00:45:40;7.60;;;4.25;;
27412;SDS011;14871;52.702;5.230;2023-07-20T00:48:06;5.35;;;4.43;;
27412;SDS011;14871;52.702;5.230;2023-07-20T00:50:32;5.97;;;4.40;;
27412;SDS011;14871;52.702;5.230;2023-07-20T00:52:59;6.15;;;4.15;;
27412;SDS011;14871;52.702;5.230;2023-07-20T00:55:25;4.93;;;4.50;;
27412;SDS011;14871;52.702;5.230;2023-07-20T00:57:52;5.93;;;4.10;;
27412;SDS011;14871;52.702;5.230;2023-07-20T01:00:18;4.40;;;4.00;;
27412;SDS011;14871;52.702;5.230;2023-07-20T01:02:44;3.90;;;3.60;;
27412;SDS011;14871;52.702;5.230;2023-07-20T01:05:10;4.25;;;3.85;;
27412;SDS011;14871;52.702;5.230;2023-07-20T01:07:51;5.97;;;3.42;;
27412;SDS011;14871;52.702;5.230;2023-07-20T01:10:25;5.78;;;3.90;;
27412;SDS011;14871;52.702;5.230;2023-07-20T01:12:58;4.20;;;3.03;;
27412;SDS011;14871;52.702;5.230;2023-07-20T01:15:26;3.47;;;2.60;;
27412;SDS011;14871;52.702;5.230;2023-07-20T01:17:52;4.22;;;2.30;;
27412;SDS011;14871;52.702;5.230;2023-07-20T01:20:19;3.35;;;2.42;;
27412;SDS011;14871;52.702;5.230;2023-07-20T01:23:01;2.33;;;1.90;;
27412;SDS011;14871;52.702;5.230;2023-07-20T01:31:23;2.13;;;1.65;;
27412;SDS011;14871;52.702;5.230;2023-07-20T01:33:52;2.72;;;2.35;;
27412;SDS011;14871;52.702;5.230;2023-07-20T01:36:21;2.55;;;1.90;;
27412;SDS011;14871;52.702;5.230;2023-07-20T01:38:49;2.63;;;1.80;;
27412;SDS011;14871;52.702;5.230;2023-07-20T01:41:16;2.75;;;2.03;;
27412;SDS011;14871;52.702;5.230;2023-07-20T01:43:43;2.00;;;1.80;;
27412;SDS011;14871;52.702;5.230;2023-07-20T01:46:08;2.20;;;1.60;;
27412;SDS011;14871;52.702;5.230;2023-07-20T01:48:34;2.50;;;2.00;;
27412;SDS011;14871;52.702;5.230;2023-07-20T01:51:00;4.82;;;1.80;;
27412;SDS011;14871;52.702;5.230;2023-07-20T01:53:25;5.43;;;1.70;;
27412;SDS011;14871;52.702;5.230;2023-07-20T01:55:54;3.00;;;1.48;;
27412;SDS011;14871;52.702;5.230;2023-07-20T01:58:21;4.28;;;1.33;;
27412;SDS011;14871;52.702;5.230;2023-07-20T02:00:46;2.70;;;1.02;;
27412;SDS011;14871;52.702;5.230;2023-07-20T02:03:12;3.05;;;1.40;;
27412;SDS011;14871;52.702;5.230;2023-07-20T02:05:38;1.67;;;1.55;;
27412;SDS011;14871;52.702;5.230;2023-07-20T02:08:03;2.80;;;1.50;;
27412;SDS011;14871;52.702;5.230;2023-07-20T02:10:29;1.60;;;1.50;;
27412;SDS011;14871;52.702;5.230;2023-07-20T02:12:55;1.52;;;1.30;;
27412;SDS011;14871;52.702;5.230;2023-07-20T02:15:21;3.30;;;1.10;;
27412;SDS011;14871;52.702;5.230;2023-07-20T02:17:47;3.40;;;1.23;;
27412;SDS011;14871;52.702;5.230;2023-07-20T02:20:12;2.75;;;1.17;;
27412;SDS011;14871;52.702;5.230;2023-07-20T02:22:38;3.42;;;1.85;;
27412;SDS011;14871;52.702;5.230;2023-07-20T02:25:05;2.70;;;1.35;;
27412;SDS011;14871;52.702;5.230;2023-07-20T02:27:32;1.75;;;1.42;;
27412;SDS011;14871;52.702;5.230;2023-07-20T02:30:02;2.30;;;1.38;;
27412;SDS011;14871;52.702;5.230;2023-07-20T02:32:28;1.48;;;1.20;;
27412;SDS011;14871;52.702;5.230;2023-07-20T02:34:54;2.45;;;1.20;;
27412;SDS011;14871;52.702;5.230;2023-07-20T02:37:20;1.40;;;1.02;;
27412;SDS011;14871;52.702;5.230;2023-07-20T02:39:45;1.40;;;1.15;;
27412;SDS011;14871;52.702;5.230;2023-07-20T02:42:11;2.22;;;1.00;;
27412;SDS011;14871;52.702;5.230;2023-07-20T02:44:37;1.63;;;1.10;;
27412;SDS011;14871;52.702;5.230;2023-07-20T02:47:03;3.45;;;1.00;;
27412;SDS011;14871;52.702;5.230;2023-07-20T02:49:28;1.15;;;1.02;;
27412;SDS011;14871;52.702;5.230;2023-07-20T02:51:54;1.70;;;1.27;;
27412;SDS011;14871;52.702;5.230;2023-07-20T02:54:20;1.83;;;1.35;;
27412;SDS011;14871;52.702;5.230;2023-07-20T02:56:46;1.58;;;0.90;;
27412;SDS011;14871;52.702;5.230;2023-07-20T02:59:12;2.25;;;1.15;;
27412;SDS011;14871;52.702;5.230;2023-07-20T03:01:38;1.70;;;1.13;;
27412;SDS011;14871;52.702;5.230;2023-07-20T03:04:04;3.38;;;1.40;;
27412;SDS011;14871;52.702;5.230;2023-07-20T03:06:29;2.85;;;1.52;;
27412;SDS011;14871;52.702;5.230;2023-07-20T03:08:55;2.05;;;1.20;;
27412;SDS011;14871;52.702;5.230;2023-07-20T03:11:21;3.80;;;1.42;;
27412;SDS011;14871;52.702;5.230;2023-07-20T03:13:47;1.30;;;1.02;;
27412;SDS011;14871;52.702;5.230;2023-07-20T03:16:14;2.67;;;1.20;;
27412;SDS011;14871;52.702;5.230;2023-07-20T03:18:43;2.22;;;1.33;;
27412;SDS011;14871;52.702;5.230;2023-07-20T03:21:09;2.60;;;1.58;;
27412;SDS011;14871;52.702;5.230;2023-07-20T03:23:38;3.25;;;1.20;;
27412;SDS011;14871;52.702;5.230;2023-07-20T03:26:05;1.58;;;1.40;;
27412;SDS011;14871;52.702;5.230;2023-07-20T03:28:33;4.60;;;1.33;;
27412;SDS011;14871;52.702;5.230;2023-07-20T03:30:59;2.75;;;1.55;;
27412;SDS011;14871;52.702;5.230;2023-07-20T03:33:26;3.65;;;1.67;;
27412;SDS011;14871;52.702;5.230;2023-07-20T03:35:53;2.35;;;1.30;;
27412;SDS011;14871;52.702;5.230;2023-07-20T03:38:20;2.55;;;1.25;;
27412;SDS011;14871;52.702;5.230;2023-07-20T03:40:52;4.35;;;1.48;;
27412;SDS011;14871;52.702;5.230;2023-07-20T03:43:19;5.18;;;1.10;;
27412;SDS011;14871;52.702;5.230;2023-07-20T03:45:45;3.10;;;1.67;;
27412;SDS011;14871;52.702;5.230;2023-07-20T03:48:12;3.85;;;1.58;;
27412;SDS011;14871;52.702;5.230;2023-07-20T03:50:40;3.70;;;1.63;;
27412;SDS011;14871;52.702;5.230;2023-07-20T03:53:05;2.30;;;1.30;;
27412;SDS011;14871;52.702;5.230;2023-07-20T03:55:31;2.78;;;1.63;;
27412;SDS011;14871;52.702;5.230;2023-07-20T03:57:57;2.17;;;1.35;;
27412;SDS011;14871;52.702;5.230;2023-07-20T04:00:22;2.58;;;1.70;;
27412;SDS011;14871;52.702;5.230;2023-07-20T04:02:48;2.47;;;1.70;;
27412;SDS011;14871;52.702;5.230;2023-07-20T04:05:14;4.80;;;2.05;;
27412;SDS011;14871;52.702;5.230;2023-07-20T04:07:40;1.92;;;1.70;;
27412;SDS011;14871;52.702;5.230;2023-07-20T04:10:05;3.05;;;1.80;;
27412;SDS011;14871;52.702;5.230;2023-07-20T04:12:31;2.33;;;1.90;;
27412;SDS011;14871;52.702;5.230;2023-07-20T04:14:57;3.60;;;2.00;;
27412;SDS011;14871;52.702;5.230;2023-07-20T04:17:22;4.43;;;1.75;;
27412;SDS011;14871;52.702;5.230;2023-07-20T04:19:48;1.98;;;1.65;;
27412;SDS011;14871;52.702;5.230;2023-07-20T04:22:13;2.13;;;1.80;;
27412;SDS011;14871;52.702;5.230;2023-07-20T04:24:41;1.95;;;1.63;;
27412;SDS011;14871;52.702;5.230;2023-07-20T04:27:07;2.13;;;1.85;;
27412;SDS011;14871;52.702;5.230;2023-07-20T04:29:33;4.65;;;2.00;;
27412;SDS011;14871;52.702;5.230;2023-07-20T04:31:58;4.32;;;1.92;;
27412;SDS011;14871;52.702;5.230;2023-07-20T04:34:24;3.08;;;1.85;;
27412;SDS011;14871;52.702;5.230;2023-07-20T04:36:50;2.30;;;1.80;;
27412;SDS011;14871;52.702;5.230;2023-07-20T04:39:15;3.88;;;1.67;;
27412;SDS011;14871;52.702;5.230;2023-07-20T04:41:41;4.05;;;2.10;;
27412;SDS011;14871;52.702;5.230;2023-07-20T04:44:06;5.93;;;2.00;;
27412;SDS011;14871;52.702;5.230;2023-07-20T04:46:32;4.30;;;2.28;;
27412;SDS011;14871;52.702;5.230;2023-07-20T04:48:58;3.15;;;1.95;;
27412;SDS011;14871;52.702;5.230;2023-07-20T04:51:23;2.75;;;1.95;;
27412;SDS011;14871;52.702;5.230;2023-07-20T04:53:49;4.88;;;1.85;;
27412;SDS011;14871;52.702;5.230;2023-07-20T04:56:14;2.05;;;1.85;;
27412;SDS011;14871;52.702;5.230;2023-07-20T04:58:40;3.45;;;2.20;;
27412;SDS011;14871;52.702;5.230;2023-07-20T05:01:06;4.88;;;2.15;;
27412;SDS011;14871;52.702;5.230;2023-07-20T05:03:33;3.95;;;1.85;;
27412;SDS011;14871;52.702;5.230;2023-07-20T05:05:58;5.65;;;2.10;;
27412;SDS011;14871;52.702;5.230;2023-07-20T05:08:24;3.58;;;2.10;;
27412;SDS011;14871;52.702;5.230;2023-07-20T05:10:50;3.05;;;1.92;;
27412;SDS011;14871;52.702;5.230;2023-07-20T05:13:16;7.18;;;2.20;;
27412;SDS011;14871;52.702;5.230;2023-07-20T05:15:41;6.05;;;2.10;;
27412;SDS011;14871;52.702;5.230;2023-07-20T05:18:07;5.63;;;2.20;;
27412;SDS011;14871;52.702;5.230;2023-07-20T05:20:34;3.17;;;1.88;;
27412;SDS011;14871;52.702;5.230;2023-07-20T05:23:00;4.40;;;2.20;;
27412;SDS011;14871;52.702;5.230;2023-07-20T05:25:26;2.13;;;1.73;;
27412;SDS011;14871;52.702;5.230;2023-07-20T05:27:52;5.40;;;2.22;;
27412;SDS011;14871;52.702;5.230;2023-07-20T05:30:18;3.10;;;1.90;;
27412;SDS011;14871;52.702;5.230;2023-07-20T05:32:44;3.22;;;2.15;;
27412;SDS011;14871;52.702;5.230;2023-07-20T05:35:12;2.95;;;2.10;;
27412;SDS011;14871;52.702;5.230;2023-07-20T05:37:39;3.33;;;1.95;;
27412;SDS011;14871;52.702;5.230;2023-07-20T05:40:04;3.88;;;1.98;;
27412;SDS011;14871;52.702;5.230;2023-07-20T05:42:31;4.43;;;2.00;;
27412;SDS011;14871;52.702;5.230;2023-07-20T05:44:57;2.92;;;1.63;;
27412;SDS011;14871;52.702;5.230;2023-07-20T05:47:22;3.42;;;1.98;;
27412;SDS011;14871;52.702;5.230;2023-07-20T05:49:48;4.03;;;1.50;;
27412;SDS011;14871;52.702;5.230;2023-07-20T05:52:13;2.78;;;1.42;;
27412;SDS011;14871;52.702;5.230;2023-07-20T05:54:39;2.30;;;1.30;;
27412;SDS011;14871;52.702;5.230;2023-07-20T05:57:04;2.42;;;1.00;;
27412;SDS011;14871;52.702;5.230;2023-07-20T05:59:30;3.53;;;1.40;;
27412;SDS011;14871;52.702;5.230;2023-07-20T06:01:56;2.20;;;1.00;;
27412;SDS011;14871;52.702;5.230;2023-07-20T06:04:22;2.40;;;1.13;;
27412;SDS011;14871;52.702;5.230;2023-07-20T06:06:48;2.10;;;1.10;;
27412;SDS011;14871;52.702;5.230;2023-07-20T06:09:14;3.05;;;1.00;;
27412;SDS011;14871;52.702;5.230;2023-07-20T06:11:39;3.63;;;1.15;;
27412;SDS011;14871;52.702;5.230;2023-07-20T06:14:05;6.25;;;1.30;;
27412;SDS011;14871;52.702;5.230;2023-07-20T06:16:31;1.27;;;1.13;;
27412;SDS011;14871;52.702;5.230;2023-07-20T06:18:56;2.90;;;1.00;;
27412;SDS011;14871;52.702;5.230;2023-07-20T06:21:22;3.42;;;1.10;;
27412;SDS011;14871;52.702;5.230;2023-07-20T06:23:48;1.63;;;1.20;;
27412;SDS011;14871;52.702;5.230;2023-07-20T06:26:13;2.03;;;1.17;;
27412;SDS011;14871;52.702;5.230;2023-07-20T06:28:39;4.22;;;1.05;;
27412;SDS011;14871;52.702;5.230;2023-07-20T06:31:05;2.92;;;1.15;;
27412;SDS011;14871;52.702;5.230;2023-07-20T06:33:30;3.50;;;1.10;;
27412;SDS011;14871;52.702;5.230;2023-07-20T06:35:56;1.65;;;1.10;;
27412;SDS011;14871;52.702;5.230;2023-07-20T06:38:22;2.30;;;1.05;;
27412;SDS011;14871;52.702;5.230;2023-07-20T06:40:51;3.25;;;0.80;;
27412;SDS011;14871;52.702;5.230;2023-07-20T06:43:17;2.65;;;0.98;;
27412;SDS011;14871;52.702;5.230;2023-07-20T06:45:43;1.55;;;1.25;;
27412;SDS011;14871;52.702;5.230;2023-07-20T06:48:09;2.45;;;1.05;;
27412;SDS011;14871;52.702;5.230;2023-07-20T06:50:34;1.35;;;1.00;;
27412;SDS011;14871;52.702;5.230;2023-07-20T06:53:00;3.20;;;1.10;;
27412;SDS011;14871;52.702;5.230;2023-07-20T06:55:28;1.13;;;0.80;;
27412;SDS011;14871;52.702;5.230;2023-07-20T06:57:54;1.30;;;0.80;;
27412;SDS011;14871;52.702;5.230;2023-07-20T07:00:20;2.40;;;1.17;;
27412;SDS011;14871;52.702;5.230;2023-07-20T07:02:46;2.00;;;0.77;;
27412;SDS011;14871;52.702;5.230;2023-07-20T07:05:11;1.95;;;0.95;;
27412;SDS011;14871;52.702;5.230;2023-07-20T07:07:39;4.70;;;1.23;;
27412;SDS011;14871;52.702;5.230;2023-07-20T07:10:05;0.93;;;0.82;;
27412;SDS011;14871;52.702;5.230;2023-07-20T07:12:31;1.50;;;1.13;;
27412;SDS011;14871;52.702;5.230;2023-07-20T07:14:57;1.27;;;0.70;;
27412;SDS011;14871;52.702;5.230;2023-07-20T07:17:23;1.08;;;0.80;;
27412;SDS011;14871;52.702;5.230;2023-07-20T07:19:48;1.65;;;0.93;;
27412;SDS011;14871;52.702;5.230;2023-07-20T07:22:14;1.83;;;1.10;;
27412;SDS011;14871;52.702;5.230;2023-07-20T07:24:40;0.70;;;0.70;;
27412;SDS011;14871;52.702;5.230;2023-07-20T07:27:07;3.45;;;0.77;;
27412;SDS011;14871;52.702;5.230;2023-07-20T07:29:34;1.75;;;0.80;;
27412;SDS011;14871;52.702;5.230;2023-07-20T07:31:59;2.28;;;0.80;;
27412;SDS011;14871;52.702;5.230;2023-07-20T07:34:26;2.70;;;0.90;;
27412;SDS011;14871;52.702;5.230;2023-07-20T07:36:52;1.38;;;0.65;;
27412;SDS011;14871;52.702;5.230;2023-07-20T07:39:18;3.58;;;0.82;;
27412;SDS011;14871;52.702;5.230;2023-07-20T07:41:44;1.77;;;0.70;;
27412;SDS011;14871;52.702;5.230;2023-07-20T07:44:10;1.70;;;1.13;;
27412;SDS011;14871;52.702;5.230;2023-07-20T07:46:35;1.75;;;0.90;;
27412;SDS011;14871;52.702;5.230;2023-07-20T07:49:01;2.47;;;0.90;;
27412;SDS011;14871;52.702;5.230;2023-07-20T07:51:26;3.08;;;1.45;;
27412;SDS011;14871;52.702;5.230;2023-07-20T07:53:52;12.25;;;2.00;;
27412;SDS011;14871;52.702;5.230;2023-07-20T07:56:18;10.48;;;1.90;;
27412;SDS011;14871;52.702;5.230;2023-07-20T07:58:47;5.57;;;1.65;;
27412;SDS011;14871;52.702;5.230;2023-07-20T08:01:19;4.70;;;1.63;;
27412;SDS011;14871;52.702;5.230;2023-07-20T08:03:45;4.00;;;1.20;;
27412;SDS011;14871;52.702;5.230;2023-07-20T08:06:12;4.18;;;1.20;;
27412;SDS011;14871;52.702;5.230;2023-07-20T08:08:41;3.20;;;1.63;;
27412;SDS011;14871;52.702;5.230;2023-07-20T08:11:07;6.55;;;1.88;;
27412;SDS011;14871;52.702;5.230;2023-07-20T08:13:34;3.00;;;1.80;;
27412;SDS011;14871;52.702;5.230;2023-07-20T08:16:00;2.42;;;1.40;;
27412;SDS011;14871;52.702;5.230;2023-07-20T08:18:27;2.47;;;1.35;;
27412;SDS011;14871;52.702;5.230;2023-07-20T08:20:53;2.58;;;1.13;;
27412;SDS011;14871;52.702;5.230;2023-07-20T08:23:19;3.65;;;1.58;;
27412;SDS011;14871;52.702;5.230;2023-07-20T08:25:45;3.03;;;1.70;;
27412;SDS011;14871;52.702;5.230;2023-07-20T08:28:11;1.42;;;0.90;;
27412;SDS011;14871;52.702;5.230;2023-07-20T08:30:44;4.10;;;1.27;;
27412;SDS011;14871;52.702;5.230;2023-07-20T08:33:12;2.35;;;1.23;;
27412;SDS011;14871;52.702;5.230;2023-07-20T08:35:39;3.90;;;1.88;;
27412;SDS011;14871;52.702;5.230;2023-07-20T08:38:05;1.55;;;1.17;;
27412;SDS011;14871;52.702;5.230;2023-07-20T08:40:32;2.85;;;1.00;;
27412;SDS011;14871;52.702;5.230;2023-07-20T08:43:03;2.58;;;1.40;;
27412;SDS011;14871;52.702;5.230;2023-07-20T08:45:29;3.65;;;1.45;;
27412;SDS011;14871;52.702;5.230;2023-07-20T08:47:58;1.10;;;0.80;;
27412;SDS011;14871;52.702;5.230;2023-07-20T08:50:28;0.73;;;0.73;;
27412;SDS011;14871;52.702;5.230;2023-07-20T08:52:56;2.60;;;0.80;;
27412;SDS011;14871;52.702;5.230;2023-07-20T08:55:23;1.80;;;0.90;;
27412;SDS011;14871;52.702;5.230;2023-07-20T08:57:51;2.15;;;1.08;;
27412;SDS011;14871;52.702;5.230;2023-07-20T09:00:19;1.80;;;1.02;;
27412;SDS011;14871;52.702;5.230;2023-07-20T09:02:47;1.25;;;0.80;;
27412;SDS011;14871;52.702;5.230;2023-07-20T09:05:18;3.28;;;0.95;;
27412;SDS011;14871;52.702;5.230;2023-07-20T09:07:44;3.85;;;1.08;;
27412;SDS011;14871;52.702;5.230;2023-07-20T09:10:09;2.72;;;0.80;;
27412;SDS011;14871;52.702;5.230;2023-07-20T09:12:37;2.88;;;1.00;;
27412;SDS011;14871;52.702;5.230;2023-07-20T09:15:04;3.78;;;1.00;;
27412;SDS011;14871;52.702;5.230;2023-07-20T09:17:30;1.73;;;1.08;;
27412;SDS011;14871;52.702;5.230;2023-07-20T09:19:56;3.58;;;1.08;;
27412;SDS011;14871;52.702;5.230;2023-07-20T09:22:22;2.22;;;0.93;;
27412;SDS011;14871;52.702;5.230;2023-07-20T09:24:54;3.35;;;1.10;;
27412;SDS011;14871;52.702;5.230;2023-07-20T09:27:20;3.45;;;1.10;;
27412;SDS011;14871;52.702;5.230;2023-07-20T09:29:51;2.78;;;1.30;;
27412;SDS011;14871;52.702;5.230;2023-07-20T09:32:18;2.45;;;1.02;;
27412;SDS011;14871;52.702;5.230;2023-07-20T09:34:49;1.75;;;1.05;;
27412;SDS011;14871;52.702;5.230;2023-07-20T09:37:20;2.88;;;1.17;;
27412;SDS011;14871;52.702;5.230;2023-07-20T09:39:47;2.45;;;1.15;;
27412;SDS011;14871;52.702;5.230;2023-07-20T09:42:14;1.40;;;1.08;;
27412;SDS011;14871;52.702;5.230;2023-07-20T09:44:40;2.88;;;1.25;;
27412;SDS011;14871;52.702;5.230;2023-07-20T09:47:09;1.33;;;1.20;;
27412;SDS011;14871;52.702;5.230;2023-07-20T09:49:41;2.50;;;1.48;;
27412;SDS011;14871;52.702;5.230;2023-07-20T09:52:10;1.92;;;1.17;;
27412;SDS011;14871;52.702;5.230;2023-07-20T09:54:38;2.83;;;1.10;;
27412;SDS011;14871;52.702;5.230;2023-07-20T09:57:06;2.92;;;0.98;;
27412;SDS011;14871;52.702;5.230;2023-07-20T09:59:37;2.25;;;0.98;;
27412;SDS011;14871;52.702;5.230;2023-07-20T10:02:04;4.75;;;1.15;;
27412;SDS011;14871;52.702;5.230;2023-07-20T10:04:44;2.17;;;1.15;;
27412;SDS011;14871;52.702;5.230;2023-07-20T10:07:11;4.40;;;1.40;;
27412;SDS011;14871;52.702;5.230;2023-07-20T10:09:39;3.35;;;1.40;;
27412;SDS011;14871;52.702;5.230;2023-07-20T10:12:06;4.90;;;1.38;;
27412;SDS011;14871;52.702;5.230;2023-07-20T10:14:34;4.47;;;1.27;;
27412;SDS011;14871;52.702;5.230;2023-07-20T10:17:05;1.55;;;0.90;;
27412;SDS011;14871;52.702;5.230;2023-07-20T10:22:12;4.43;;;1.25;;
27412;SDS011;14871;52.702;5.230;2023-07-20T10:24:44;2.00;;;1.38;;
27412;SDS011;14871;52.702;5.230;2023-07-20T10:27:10;2.20;;;1.27;;
27412;SDS011;14871;52.702;5.230;2023-07-20T10:29:36;5.68;;;1.50;;
27412;SDS011;14871;52.702;5.230;2023-07-20T10:32:02;3.10;;;1.27;;
27412;SDS011;14871;52.702;5.230;2023-07-20T10:34:28;1.73;;;1.38;;
27412;SDS011;14871;52.702;5.230;2023-07-20T10:36:54;2.60;;;1.30;;
27412;SDS011;14871;52.702;5.230;2023-07-20T10:39:23;1.20;;;0.95;;
27412;SDS011;14871;52.702;5.230;2023-07-20T10:41:59;4.57;;;1.40;;
27412;SDS011;14871;52.702;5.230;2023-07-20T10:44:38;1.67;;;0.90;;
27412;SDS011;14871;52.702;5.230;2023-07-20T10:47:11;2.28;;;1.00;;
27412;SDS011;14871;52.702;5.230;2023-07-20T10:52:25;2.63;;;1.00;;
27412;SDS011;14871;52.702;5.230;2023-07-20T10:54:51;2.90;;;1.00;;
27412;SDS011;14871;52.702;5.230;2023-07-20T10:57:24;2.90;;;1.08;;
27412;SDS011;14871;52.702;5.230;2023-07-20T11:00:06;1.25;;;0.70;;
27412;SDS011;14871;52.702;5.230;2023-07-20T11:02:42;1.77;;;0.95;;
27412;SDS011;14871;52.702;5.230;2023-07-20T11:05:31;2.45;;;0.82;;
27412;SDS011;14871;52.702;5.230;2023-07-20T11:08:04;0.93;;;0.60;;
27412;SDS011;14871;52.702;5.230;2023-07-20T11:10:31;2.05;;;0.90;;
27412;SDS011;14871;52.702;5.230;2023-07-20T11:18:21;1.83;;;0.88;;
27412;SDS011;14871;52.702;5.230;2023-07-20T11:20:50;1.38;;;1.10;;
27412;SDS011;14871;52.702;5.230;2023-07-20T11:23:17;2.30;;;1.05;;
27412;SDS011;14871;52.702;5.230;2023-07-20T11:25:44;2.95;;;0.90;;
27412;SDS011;14871;52.702;5.230;2023-07-20T11:28:10;0.82;;;0.70;;
27412;SDS011;14871;52.702;5.230;2023-07-20T11:30:37;2.78;;;0.90;;
27412;SDS011;14871;52.702;5.230;2023-07-20T11:33:08;1.88;;;1.17;;
27412;SDS011;14871;52.702;5.230;2023-07-20T11:35:43;2.70;;;0.90;;
27412;SDS011;14871;52.702;5.230;2023-07-20T11:38:13;2.45;;;0.80;;
27412;SDS011;14871;52.702;5.230;2023-07-20T11:40:43;3.53;;;1.17;;
27412;SDS011;14871;52.702;5.230;2023-07-20T11:43:09;2.22;;;0.95;;
27412;SDS011;14871;52.702;5.230;2023-07-20T11:45:37;3.15;;;0.80;;
27412;SDS011;14871;52.702;5.230;2023-07-20T11:48:03;2.08;;;1.17;;
27412;SDS011;14871;52.702;5.230;2023-07-20T11:50:29;3.25;;;1.20;;
27412;SDS011;14871;52.702;5.230;2023-07-20T11:52:55;1.42;;;0.85;;
27412;SDS011;14871;52.702;5.230;2023-07-20T11:55:21;2.05;;;1.10;;
27412;SDS011;14871;52.702;5.230;2023-07-20T11:58:06;1.63;;;0.80;;
27412;SDS011;14871;52.702;5.230;2023-07-20T12:00:33;5.75;;;1.42;;
27412;SDS011;14871;52.702;5.230;2023-07-20T12:02:59;1.80;;;0.77;;
27412;SDS011;14871;52.702;5.230;2023-07-20T12:05:25;1.42;;;0.90;;
27412;SDS011;14871;52.702;5.230;2023-07-20T12:07:54;2.72;;;1.10;;
27412;SDS011;14871;52.702;5.230;2023-07-20T12:10:23;4.68;;;1.50;;
27412;SDS011;14871;52.702;5.230;2023-07-20T12:12:51;2.13;;;1.27;;
27412;SDS011;14871;52.702;5.230;2023-07-20T12:15:24;3.70;;;1.40;;
27412;SDS011;14871;52.702;5.230;2023-07-20T12:17:58;1.80;;;0.93;;
27412;SDS011;14871;52.702;5.230;2023-07-20T12:23:00;2.25;;;0.90;;
27412;SDS011;14871;52.702;5.230;2023-07-20T12:25:41;1.52;;;1.15;;
27412;SDS011;14871;52.702;5.230;2023-07-20T12:28:10;2.85;;;1.65;;
27412;SDS011;14871;52.702;5.230;2023-07-20T12:30:37;1.73;;;1.20;;
27412;SDS011;14871;52.702;5.230;2023-07-20T12:33:04;2.83;;;0.90;;
27412;SDS011;14871;52.702;5.230;2023-07-20T12:35:30;1.10;;;0.90;;
27412;SDS011;14871;52.702;5.230;2023-07-20T12:37:57;3.22;;;1.00;;
27412;SDS011;14871;52.702;5.230;2023-07-20T12:40:23;4.68;;;1.50;;
27412;SDS011;14871;52.702;5.230;2023-07-20T12:42:49;3.33;;;0.70;;
27412;SDS011;14871;52.702;5.230;2023-07-20T12:45:15;2.45;;;0.90;;
27412;SDS011;14871;52.702;5.230;2023-07-20T12:47:41;4.40;;;1.65;;
27412;SDS011;14871;52.702;5.230;2023-07-20T12:50:08;4.43;;;1.50;;
27412;SDS011;14871;52.702;5.230;2023-07-20T12:52:38;3.67;;;1.38;;
27412;SDS011;14871;52.702;5.230;2023-07-20T12:55:05;4.15;;;1.23;;
27412;SDS011;14871;52.702;5.230;2023-07-20T12:57:33;5.95;;;1.55;;
27412;SDS011;14871;52.702;5.230;2023-07-20T13:00:00;3.20;;;1.50;;
27412;SDS011;14871;52.702;5.230;2023-07-20T13:02:26;6.25;;;1.60;;
27412;SDS011;14871;52.702;5.230;2023-07-20T13:04:52;4.35;;;1.30;;
27412;SDS011;14871;52.702;5.230;2023-07-20T13:07:18;2.53;;;1.40;;
27412;SDS011;14871;52.702;5.230;2023-07-20T13:09:56;2.15;;;1.25;;
27412;SDS011;14871;52.702;5.230;2023-07-20T13:12:21;1.63;;;1.50;;
27412;SDS011;14871;52.702;5.230;2023-07-20T13:14:47;2.95;;;1.35;;
27412;SDS011;14871;52.702;5.230;2023-07-20T13:17:13;2.47;;;1.70;;
27412;SDS011;14871;52.702;5.230;2023-07-20T13:19:39;3.78;;;1.45;;
27412;SDS011;14871;52.702;5.230;2023-07-20T13:22:05;3.25;;;1.45;;
27412;SDS011;14871;52.702;5.230;2023-07-20T13:24:30;3.10;;;1.60;;
27412;SDS011;14871;52.702;5.230;2023-07-20T13:26:56;5.72;;;2.42;;
27412;SDS011;14871;52.702;5.230;2023-07-20T13:29:22;5.50;;;1.70;;
27412;SDS011;14871;52.702;5.230;2023-07-20T13:31:48;3.63;;;1.70;;
27412;SDS011;14871;52.702;5.230;2023-07-20T13:34:14;3.15;;;1.35;;
27412;SDS011;14871;52.702;5.230;2023-07-20T13:36:39;1.85;;;1.30;;
27412;SDS011;14871;52.702;5.230;2023-07-20T13:39:05;2.20;;;1.35;;
27412;SDS011;14871;52.702;5.230;2023-07-20T13:41:31;3.05;;;1.40;;
27412;SDS011;14871;52.702;5.230;2023-07-20T13:43:57;1.77;;;1.25;;
27412;SDS011;14871;52.702;5.230;2023-07-20T13:46:23;3.17;;;1.60;;
27412;SDS011;14871;52.702;5.230;2023-07-20T13:48:48;2.70;;;1.70;;
27412;SDS011;14871;52.702;5.230;2023-07-20T13:51:14;4.07;;;1.88;;
27412;SDS011;14871;52.702;5.230;2023-07-20T13:53:40;1.70;;;1.10;;
27412;SDS011;14871;52.702;5.230;2023-07-20T13:56:05;2.63;;;1.50;;
27412;SDS011;14871;52.702;5.230;2023-07-20T13:58:32;1.30;;;1.20;;
27412;SDS011;14871;52.702;5.230;2023-07-20T14:00:58;3.80;;;1.10;;
27412;SDS011;14871;52.702;5.230;2023-07-20T14:03:23;2.00;;;1.30;;
27412;SDS011;14871;52.702;5.230;2023-07-20T14:05:49;2.58;;;1.20;;
27412;SDS011;14871;52.702;5.230;2023-07-20T14:08:15;3.63;;;1.08;;
27412;SDS011;14871;52.702;5.230;2023-07-20T14:10:41;1.27;;;0.98;;
27412;SDS011;14871;52.702;5.230;2023-07-20T14:13:14;1.98;;;0.75;;
27412;SDS011;14871;52.702;5.230;2023-07-20T14:15:39;1.55;;;1.08;;
27412;SDS011;14871;52.702;5.230;2023-07-20T14:18:05;2.50;;;0.80;;
27412;SDS011;14871;52.702;5.230;2023-07-20T14:20:31;1.50;;;0.80;;
27412;SDS011;14871;52.702;5.230;2023-07-20T14:22:57;1.35;;;0.70;;
27412;SDS011;14871;52.702;5.230;2023-07-20T14:25:23;1.63;;;0.77;;
27412;SDS011;14871;52.702;5.230;2023-07-20T14:27:48;3.78;;;1.15;;
27412;SDS011;14871;52.702;5.230;2023-07-20T14:30:14;2.10;;;0.70;;
27412;SDS011;14871;52.702;5.230;2023-07-20T14:32:40;1.25;;;0.70;;
27412;SDS011;14871;52.702;5.230;2023-07-20T14:35:06;1.50;;;0.73;;
27412;SDS011;14871;52.702;5.230;2023-07-20T14:37:32;1.58;;;1.00;;
27412;SDS011;14871;52.702;5.230;2023-07-20T14:39:58;1.40;;;0.90;;
27412;SDS011;14871;52.702;5.230;2023-07-20T14:42:24;2.72;;;0.70;;
27412;SDS011;14871;52.702;5.230;2023-07-20T14:44:49;0.88;;;0.60;;
27412;SDS011;14871;52.702;5.230;2023-07-20T14:47:15;2.00;;;0.80;;
27412;SDS011;14871;52.702;5.230;2023-07-20T14:49:41;1.00;;;0.60;;
27412;SDS011;14871;52.702;5.230;2023-07-20T14:52:06;1.95;;;1.00;;
27412;SDS011;14871;52.702;5.230;2023-07-20T14:54:32;3.00;;;0.95;;
27412;SDS011;14871;52.702;5.230;2023-07-20T14:56:57;0.88;;;0.80;;
27412;SDS011;14871;52.702;5.230;2023-07-20T14:59:23;1.65;;;0.70;;
27412;SDS011;14871;52.702;5.230;2023-07-20T15:01:49;4.35;;;0.68;;
27412;SDS011;14871;52.702;5.230;2023-07-20T15:04:16;0.70;;;0.60;;
27412;SDS011;14871;52.702;5.230;2023-07-20T15:06:41;1.60;;;0.73;;